Bridger, Montana
Current Conditions -  °F | °C
As of 1:15 PM on Wednesday 26 Nov 2014 (Local Time) from KPOY Reporting Station
Haze Haze  
Wind Chill: 20°   Ceiling: 200
Heat Index: 28°   Visibility: 1.2mi
Dew Point: 25°   Wind: 9mph
Humidity: 86%   Direction: 120°ESE
Pressure: 30.12"   Gusts: NA
Location:  45.3°N, 108.91°W
Report Text: KPOY 262015Z AUTO 12008KT 1 1/4SM BR OVC002 M02/M04 A3012 RMK AO2
Loading
Personal Weather Stations






























Interactive Weather Map New forecast layout! Learn more

10-Day Weather Forecast

Advertisements
Track Severe Weather on mobile